sensor_id;sensor_type;location;lat;lon;timestamp;P1;durP1;ratioP1;P2;durP2;ratioP2
40781;SDS011;26493;51.938;7.626;2023-04-15T00:00:51;19.20;;;12.02;;
40781;SDS011;26493;51.938;7.626;2023-04-15T00:03:17;20.08;;;13.15;;
40781;SDS011;26493;51.938;7.626;2023-04-15T00:05:43;22.88;;;13.43;;
40781;SDS011;26493;51.938;7.626;2023-04-15T00:08:09;21.60;;;13.75;;
40781;SDS011;26493;51.938;7.626;2023-04-15T00:10:36;25.70;;;13.32;;
40781;SDS011;26493;51.938;7.626;2023-04-15T00:13:02;22.50;;;14.07;;
40781;SDS011;26493;51.938;7.626;2023-04-15T00:15:28;23.55;;;13.35;;
40781;SDS011;26493;51.938;7.626;2023-04-15T00:17:54;20.83;;;13.45;;
40781;SDS011;26493;51.938;7.626;2023-04-15T00:20:20;22.63;;;14.35;;
40781;SDS011;26493;51.938;7.626;2023-04-15T00:22:46;21.23;;;13.63;;
40781;SDS011;26493;51.938;7.626;2023-04-15T00:25:12;20.65;;;13.05;;
40781;SDS011;26493;51.938;7.626;2023-04-15T00:27:39;19.95;;;12.88;;
40781;SDS011;26493;51.938;7.626;2023-04-15T00:30:05;21.45;;;12.57;;
40781;SDS011;26493;51.938;7.626;2023-04-15T00:32:31;20.75;;;12.85;;
40781;SDS011;26493;51.938;7.626;2023-04-15T00:34:58;20.38;;;13.23;;
40781;SDS011;26493;51.938;7.626;2023-04-15T00:37:24;20.27;;;13.25;;
40781;SDS011;26493;51.938;7.626;2023-04-15T00:39:50;19.30;;;12.73;;
40781;SDS011;26493;51.938;7.626;2023-04-15T00:42:16;21.30;;;12.63;;
40781;SDS011;26493;51.938;7.626;2023-04-15T00:44:42;20.48;;;12.38;;
40781;SDS011;26493;51.938;7.626;2023-04-15T00:47:08;19.73;;;12.52;;
40781;SDS011;26493;51.938;7.626;2023-04-15T00:49:35;25.23;;;13.98;;
40781;SDS011;26493;51.938;7.626;2023-04-15T00:52:01;24.50;;;13.15;;
40781;SDS011;26493;51.938;7.626;2023-04-15T00:54:28;23.90;;;13.35;;
40781;SDS011;26493;51.938;7.626;2023-04-15T00:56:54;22.45;;;14.20;;
40781;SDS011;26493;51.938;7.626;2023-04-15T00:59:20;21.70;;;13.70;;
40781;SDS011;26493;51.938;7.626;2023-04-15T01:01:46;20.95;;;13.50;;
40781;SDS011;26493;51.938;7.626;2023-04-15T01:04:12;21.60;;;13.80;;
40781;SDS011;26493;51.938;7.626;2023-04-15T01:06:39;21.48;;;13.73;;
40781;SDS011;26493;51.938;7.626;2023-04-15T01:09:05;21.10;;;13.43;;
40781;SDS011;26493;51.938;7.626;2023-04-15T01:11:31;22.55;;;13.27;;
40781;SDS011;26493;51.938;7.626;2023-04-15T01:13:58;21.45;;;13.13;;
40781;SDS011;26493;51.938;7.626;2023-04-15T01:16:24;22.08;;;13.52;;
40781;SDS011;26493;51.938;7.626;2023-04-15T01:18:52;22.42;;;14.25;;
40781;SDS011;26493;51.938;7.626;2023-04-15T01:21:18;20.67;;;13.88;;
40781;SDS011;26493;51.938;7.626;2023-04-15T01:23:46;22.65;;;13.38;;
40781;SDS011;26493;51.938;7.626;2023-04-15T01:26:12;22.80;;;14.23;;
40781;SDS011;26493;51.938;7.626;2023-04-15T01:28:38;21.35;;;13.77;;
40781;SDS011;26493;51.938;7.626;2023-04-15T01:31:05;20.33;;;13.65;;
40781;SDS011;26493;51.938;7.626;2023-04-15T01:33:31;21.75;;;13.88;;
40781;SDS011;26493;51.938;7.626;2023-04-15T01:35:57;21.83;;;14.25;;
40781;SDS011;26493;51.938;7.626;2023-04-15T01:38:25;22.95;;;14.30;;
40781;SDS011;26493;51.938;7.626;2023-04-15T01:40:52;20.77;;;13.93;;
40781;SDS011;26493;51.938;7.626;2023-04-15T01:43:18;22.20;;;14.30;;
40781;SDS011;26493;51.938;7.626;2023-04-15T01:45:44;20.55;;;13.57;;
40781;SDS011;26493;51.938;7.626;2023-04-15T01:48:11;21.20;;;13.50;;
40781;SDS011;26493;51.938;7.626;2023-04-15T01:50:37;21.75;;;14.55;;
40781;SDS011;26493;51.938;7.626;2023-04-15T01:53:03;21.35;;;13.30;;
40781;SDS011;26493;51.938;7.626;2023-04-15T01:55:29;21.08;;;13.95;;
40781;SDS011;26493;51.938;7.626;2023-04-15T01:57:55;22.73;;;14.00;;
40781;SDS011;26493;51.938;7.626;2023-04-15T02:00:21;22.75;;;13.20;;
40781;SDS011;26493;51.938;7.626;2023-04-15T02:02:48;23.77;;;15.40;;
40781;SDS011;26493;51.938;7.626;2023-04-15T02:05:14;22.50;;;14.60;;
40781;SDS011;26493;51.938;7.626;2023-04-15T02:07:41;21.83;;;14.02;;
40781;SDS011;26493;51.938;7.626;2023-04-15T02:10:07;24.35;;;14.77;;
40781;SDS011;26493;51.938;7.626;2023-04-15T02:12:34;23.95;;;15.10;;
40781;SDS011;26493;51.938;7.626;2023-04-15T02:15:00;21.50;;;14.35;;
40781;SDS011;26493;51.938;7.626;2023-04-15T02:17:26;23.95;;;14.52;;
40781;SDS011;26493;51.938;7.626;2023-04-15T02:19:54;21.55;;;14.65;;
40781;SDS011;26493;51.938;7.626;2023-04-15T02:22:20;21.88;;;14.50;;
40781;SDS011;26493;51.938;7.626;2023-04-15T02:24:46;23.02;;;14.55;;
40781;SDS011;26493;51.938;7.626;2023-04-15T02:27:16;22.67;;;14.68;;
40781;SDS011;26493;51.938;7.626;2023-04-15T02:29:43;24.88;;;14.90;;
40781;SDS011;26493;51.938;7.626;2023-04-15T02:32:10;22.50;;;15.50;;
40781;SDS011;26493;51.938;7.626;2023-04-15T02:34:36;22.73;;;15.30;;
40781;SDS011;26493;51.938;7.626;2023-04-15T02:37:05;21.70;;;14.48;;
40781;SDS011;26493;51.938;7.626;2023-04-15T02:39:31;25.15;;;15.90;;
40781;SDS011;26493;51.938;7.626;2023-04-15T02:41:57;23.42;;;14.90;;
40781;SDS011;26493;51.938;7.626;2023-04-15T02:44:24;23.27;;;15.27;;
40781;SDS011;26493;51.938;7.626;2023-04-15T02:46:51;22.42;;;14.85;;
40781;SDS011;26493;51.938;7.626;2023-04-15T02:49:18;22.88;;;15.40;;
40781;SDS011;26493;51.938;7.626;2023-04-15T02:51:44;22.75;;;15.27;;
40781;SDS011;26493;51.938;7.626;2023-04-15T02:54:15;26.45;;;16.05;;
40781;SDS011;26493;51.938;7.626;2023-04-15T02:56:41;23.85;;;15.48;;
40781;SDS011;26493;51.938;7.626;2023-04-15T02:59:07;21.50;;;15.88;;
40781;SDS011;26493;51.938;7.626;2023-04-15T03:01:33;22.52;;;15.40;;
40781;SDS011;26493;51.938;7.626;2023-04-15T03:03:59;23.27;;;15.30;;
40781;SDS011;26493;51.938;7.626;2023-04-15T03:06:25;23.77;;;15.48;;
40781;SDS011;26493;51.938;7.626;2023-04-15T03:08:51;24.33;;;15.93;;
40781;SDS011;26493;51.938;7.626;2023-04-15T03:11:18;26.65;;;17.42;;
40781;SDS011;26493;51.938;7.626;2023-04-15T03:13:44;26.65;;;16.80;;
40781;SDS011;26493;51.938;7.626;2023-04-15T03:16:10;25.13;;;15.77;;
40781;SDS011;26493;51.938;7.626;2023-04-15T03:18:36;27.75;;;17.20;;
40781;SDS011;26493;51.938;7.626;2023-04-15T03:21:02;26.73;;;17.23;;
40781;SDS011;26493;51.938;7.626;2023-04-15T03:23:29;24.20;;;16.98;;
40781;SDS011;26493;51.938;7.626;2023-04-15T03:25:55;24.70;;;16.52;;
40781;SDS011;26493;51.938;7.626;2023-04-15T03:28:23;25.05;;;16.75;;
40781;SDS011;26493;51.938;7.626;2023-04-15T03:30:48;24.55;;;17.13;;
40781;SDS011;26493;51.938;7.626;2023-04-15T03:33:14;26.23;;;16.75;;
40781;SDS011;26493;51.938;7.626;2023-04-15T03:35:40;25.48;;;17.13;;
40781;SDS011;26493;51.938;7.626;2023-04-15T03:38:06;30.33;;;17.40;;
40781;SDS011;26493;51.938;7.626;2023-04-15T03:40:32;24.15;;;16.38;;
40781;SDS011;26493;51.938;7.626;2023-04-15T03:42:58;25.67;;;17.50;;
40781;SDS011;26493;51.938;7.626;2023-04-15T03:45:24;26.27;;;17.83;;
40781;SDS011;26493;51.938;7.626;2023-04-15T03:47:50;25.08;;;17.10;;
40781;SDS011;26493;51.938;7.626;2023-04-15T03:50:16;29.10;;;17.90;;
40781;SDS011;26493;51.938;7.626;2023-04-15T03:52:43;25.95;;;18.10;;
40781;SDS011;26493;51.938;7.626;2023-04-15T03:55:09;26.33;;;18.08;;
40781;SDS011;26493;51.938;7.626;2023-04-15T03:57:35;24.58;;;17.00;;
40781;SDS011;26493;51.938;7.626;2023-04-15T04:00:06;25.65;;;17.05;;
40781;SDS011;26493;51.938;7.626;2023-04-15T04:02:33;25.25;;;18.05;;
40781;SDS011;26493;51.938;7.626;2023-04-15T04:04:59;24.23;;;17.50;;
40781;SDS011;26493;51.938;7.626;2023-04-15T04:07:25;28.02;;;17.98;;
40781;SDS011;26493;51.938;7.626;2023-04-15T04:09:51;24.63;;;17.45;;
40781;SDS011;26493;51.938;7.626;2023-04-15T04:12:17;26.13;;;18.50;;
40781;SDS011;26493;51.938;7.626;2023-04-15T04:14:43;29.02;;;18.60;;
40781;SDS011;26493;51.938;7.626;2023-04-15T04:17:09;25.83;;;18.15;;
40781;SDS011;26493;51.938;7.626;2023-04-15T04:19:35;27.27;;;18.55;;
40781;SDS011;26493;51.938;7.626;2023-04-15T04:22:01;25.67;;;18.02;;
40781;SDS011;26493;51.938;7.626;2023-04-15T04:24:27;26.05;;;18.45;;
40781;SDS011;26493;51.938;7.626;2023-04-15T04:26:53;26.95;;;17.95;;
40781;SDS011;26493;51.938;7.626;2023-04-15T04:29:21;24.48;;;18.17;;
40781;SDS011;26493;51.938;7.626;2023-04-15T04:31:47;25.85;;;17.45;;
40781;SDS011;26493;51.938;7.626;2023-04-15T04:34:13;26.67;;;18.48;;
40781;SDS011;26493;51.938;7.626;2023-04-15T04:36:39;24.55;;;16.88;;
40781;SDS011;26493;51.938;7.626;2023-04-15T04:39:06;25.15;;;17.70;;
40781;SDS011;26493;51.938;7.626;2023-04-15T04:41:32;25.83;;;17.88;;
40781;SDS011;26493;51.938;7.626;2023-04-15T04:43:58;32.60;;;20.35;;
40781;SDS011;26493;51.938;7.626;2023-04-15T04:46:24;25.05;;;18.55;;
40781;SDS011;26493;51.938;7.626;2023-04-15T04:48:50;24.70;;;17.05;;
40781;SDS011;26493;51.938;7.626;2023-04-15T04:51:16;26.45;;;18.60;;
40781;SDS011;26493;51.938;7.626;2023-04-15T04:53:42;25.65;;;17.73;;
40781;SDS011;26493;51.938;7.626;2023-04-15T04:56:08;27.98;;;18.45;;
40781;SDS011;26493;51.938;7.626;2023-04-15T04:58:34;24.98;;;16.67;;
40781;SDS011;26493;51.938;7.626;2023-04-15T05:01:00;27.35;;;17.08;;
40781;SDS011;26493;51.938;7.626;2023-04-15T05:03:26;25.10;;;17.55;;
40781;SDS011;26493;51.938;7.626;2023-04-15T05:05:52;28.30;;;17.45;;
40781;SDS011;26493;51.938;7.626;2023-04-15T05:08:19;26.20;;;17.80;;
40781;SDS011;26493;51.938;7.626;2023-04-15T05:10:45;28.73;;;16.85;;
40781;SDS011;26493;51.938;7.626;2023-04-15T05:13:11;23.15;;;16.23;;
40781;SDS011;26493;51.938;7.626;2023-04-15T05:15:37;25.52;;;16.42;;
40781;SDS011;26493;51.938;7.626;2023-04-15T05:18:05;30.13;;;17.58;;
40781;SDS011;26493;51.938;7.626;2023-04-15T05:20:31;25.88;;;17.30;;
40781;SDS011;26493;51.938;7.626;2023-04-15T05:22:57;26.67;;;17.63;;
40781;SDS011;26493;51.938;7.626;2023-04-15T05:25:23;25.58;;;17.88;;
40781;SDS011;26493;51.938;7.626;2023-04-15T05:27:49;25.27;;;17.60;;
40781;SDS011;26493;51.938;7.626;2023-04-15T05:30:15;26.35;;;18.00;;
40781;SDS011;26493;51.938;7.626;2023-04-15T05:32:41;24.48;;;16.58;;
40781;SDS011;26493;51.938;7.626;2023-04-15T05:35:07;25.73;;;17.73;;
40781;SDS011;26493;51.938;7.626;2023-04-15T05:37:33;25.33;;;16.98;;
40781;SDS011;26493;51.938;7.626;2023-04-15T05:40:00;26.52;;;16.88;;
40781;SDS011;26493;51.938;7.626;2023-04-15T05:42:26;28.08;;;16.10;;
40781;SDS011;26493;51.938;7.626;2023-04-15T05:44:52;25.83;;;16.95;;
40781;SDS011;26493;51.938;7.626;2023-04-15T05:47:18;26.73;;;15.65;;
40781;SDS011;26493;51.938;7.626;2023-04-15T05:49:44;26.73;;;16.67;;
40781;SDS011;26493;51.938;7.626;2023-04-15T05:52:10;25.45;;;15.50;;
40781;SDS011;26493;51.938;7.626;2023-04-15T05:54:36;26.00;;;15.82;;
40781;SDS011;26493;51.938;7.626;2023-04-15T05:57:02;24.83;;;15.80;;
40781;SDS011;26493;51.938;7.626;2023-04-15T05:59:28;28.65;;;16.25;;
40781;SDS011;26493;51.938;7.626;2023-04-15T06:04:22;23.52;;;15.50;;
40781;SDS011;26493;51.938;7.626;2023-04-15T06:06:48;24.33;;;15.23;;
40781;SDS011;26493;51.938;7.626;2023-04-15T06:09:14;26.23;;;15.52;;
40781;SDS011;26493;51.938;7.626;2023-04-15T06:11:40;26.40;;;15.65;;
40781;SDS011;26493;51.938;7.626;2023-04-15T06:14:07;25.50;;;15.25;;
40781;SDS011;26493;51.938;7.626;2023-04-15T06:16:33;25.02;;;15.38;;
40781;SDS011;26493;51.938;7.626;2023-04-15T06:19:00;25.38;;;17.02;;
40781;SDS011;26493;51.938;7.626;2023-04-15T06:21:26;28.00;;;15.50;;
40781;SDS011;26493;51.938;7.626;2023-04-15T06:23:52;26.20;;;16.90;;
40781;SDS011;26493;51.938;7.626;2023-04-15T06:26:18;25.70;;;15.90;;
40781;SDS011;26493;51.938;7.626;2023-04-15T06:28:44;25.02;;;15.20;;
40781;SDS011;26493;51.938;7.626;2023-04-15T06:31:10;28.23;;;15.35;;
40781;SDS011;26493;51.938;7.626;2023-04-15T06:33:36;23.08;;;15.27;;
40781;SDS011;26493;51.938;7.626;2023-04-15T06:36:03;23.80;;;15.13;;
40781;SDS011;26493;51.938;7.626;2023-04-15T06:38:29;26.13;;;15.38;;
40781;SDS011;26493;51.938;7.626;2023-04-15T06:40:55;25.35;;;15.70;;
40781;SDS011;26493;51.938;7.626;2023-04-15T06:43:21;24.48;;;15.50;;
40781;SDS011;26493;51.938;7.626;2023-04-15T06:45:48;26.17;;;15.48;;
40781;SDS011;26493;51.938;7.626;2023-04-15T06:48:14;24.88;;;15.93;;
40781;SDS011;26493;51.938;7.626;2023-04-15T06:50:41;23.90;;;14.82;;
40781;SDS011;26493;51.938;7.626;2023-04-15T06:53:07;24.92;;;15.10;;
40781;SDS011;26493;51.938;7.626;2023-04-15T06:55:33;25.27;;;14.65;;
40781;SDS011;26493;51.938;7.626;2023-04-15T06:57:59;29.52;;;17.02;;
40781;SDS011;26493;51.938;7.626;2023-04-15T07:00:25;24.10;;;14.95;;
40781;SDS011;26493;51.938;7.626;2023-04-15T07:02:52;23.92;;;15.00;;
40781;SDS011;26493;51.938;7.626;2023-04-15T07:05:19;24.05;;;15.02;;
40781;SDS011;26493;51.938;7.626;2023-04-15T07:07:45;27.60;;;15.73;;
40781;SDS011;26493;51.938;7.626;2023-04-15T07:10:11;24.88;;;16.17;;
40781;SDS011;26493;51.938;7.626;2023-04-15T07:12:38;25.08;;;14.93;;
40781;SDS011;26493;51.938;7.626;2023-04-15T07:15:05;24.73;;;15.27;;
40781;SDS011;26493;51.938;7.626;2023-04-15T07:17:31;24.98;;;15.68;;
40781;SDS011;26493;51.938;7.626;2023-04-15T07:19:58;25.95;;;16.33;;
40781;SDS011;26493;51.938;7.626;2023-04-15T07:22:24;25.02;;;15.75;;
40781;SDS011;26493;51.938;7.626;2023-04-15T07:24:50;24.65;;;15.02;;
40781;SDS011;26493;51.938;7.626;2023-04-15T07:27:16;24.63;;;16.55;;
40781;SDS011;26493;51.938;7.626;2023-04-15T07:29:42;25.67;;;14.45;;
40781;SDS011;26493;51.938;7.626;2023-04-15T07:32:08;23.30;;;14.85;;
40781;SDS011;26493;51.938;7.626;2023-04-15T07:34:34;24.35;;;15.75;;
40781;SDS011;26493;51.938;7.626;2023-04-15T07:37:01;26.52;;;16.23;;
40781;SDS011;26493;51.938;7.626;2023-04-15T07:39:27;25.70;;;15.40;;
40781;SDS011;26493;51.938;7.626;2023-04-15T07:41:54;24.65;;;15.13;;
40781;SDS011;26493;51.938;7.626;2023-04-15T07:44:20;21.02;;;13.60;;
40781;SDS011;26493;51.938;7.626;2023-04-15T07:46:46;23.60;;;15.45;;
40781;SDS011;26493;51.938;7.626;2023-04-15T07:49:12;22.85;;;14.60;;
40781;SDS011;26493;51.938;7.626;2023-04-15T07:51:38;23.75;;;15.60;;
40781;SDS011;26493;51.938;7.626;2023-04-15T07:54:04;22.23;;;14.85;;
40781;SDS011;26493;51.938;7.626;2023-04-15T07:56:30;25.38;;;15.43;;
40781;SDS011;26493;51.938;7.626;2023-04-15T07:58:56;24.52;;;14.35;;
40781;SDS011;26493;51.938;7.626;2023-04-15T08:01:22;23.08;;;14.88;;
40781;SDS011;26493;51.938;7.626;2023-04-15T08:03:48;21.10;;;13.20;;
40781;SDS011;26493;51.938;7.626;2023-04-15T08:06:14;22.42;;;14.32;;
40781;SDS011;26493;51.938;7.626;2023-04-15T08:08:40;22.77;;;14.15;;
40781;SDS011;26493;51.938;7.626;2023-04-15T08:11:07;23.63;;;15.10;;
40781;SDS011;26493;51.938;7.626;2023-04-15T08:13:33;23.23;;;14.68;;
40781;SDS011;26493;51.938;7.626;2023-04-15T08:18:58;21.40;;;13.32;;
40781;SDS011;26493;51.938;7.626;2023-04-15T08:21:24;21.63;;;13.65;;
40781;SDS011;26493;51.938;7.626;2023-04-15T08:23:51;24.95;;;14.88;;
40781;SDS011;26493;51.938;7.626;2023-04-15T08:26:19;24.90;;;14.02;;
40781;SDS011;26493;51.938;7.626;2023-04-15T08:28:45;23.95;;;15.13;;
40781;SDS011;26493;51.938;7.626;2023-04-15T08:31:11;24.10;;;14.63;;
40781;SDS011;26493;51.938;7.626;2023-04-15T08:33:37;24.33;;;13.75;;
40781;SDS011;26493;51.938;7.626;2023-04-15T08:36:04;23.08;;;13.98;;
40781;SDS011;26493;51.938;7.626;2023-04-15T08:38:30;23.88;;;14.60;;
40781;SDS011;26493;51.938;7.626;2023-04-15T08:40:57;23.90;;;14.60;;
40781;SDS011;26493;51.938;7.626;2023-04-15T08:43:26;22.42;;;14.50;;
40781;SDS011;26493;51.938;7.626;2023-04-15T08:45:53;23.10;;;14.00;;
40781;SDS011;26493;51.938;7.626;2023-04-15T08:48:19;24.30;;;13.90;;
40781;SDS011;26493;51.938;7.626;2023-04-15T08:50:46;23.77;;;14.75;;
40781;SDS011;26493;51.938;7.626;2023-04-15T08:53:12;21.58;;;14.23;;
40781;SDS011;26493;51.938;7.626;2023-04-15T08:55:43;22.48;;;13.38;;
40781;SDS011;26493;51.938;7.626;2023-04-15T08:58:10;25.70;;;14.88;;
40781;SDS011;26493;51.938;7.626;2023-04-15T09:00:36;21.80;;;13.02;;
40781;SDS011;26493;51.938;7.626;2023-04-15T09:03:06;21.35;;;13.60;;
40781;SDS011;26493;51.938;7.626;2023-04-15T09:05:33;22.55;;;14.35;;
40781;SDS011;26493;51.938;7.626;2023-04-15T09:08:00;23.05;;;13.75;;
40781;SDS011;26493;51.938;7.626;2023-04-15T09:10:26;20.73;;;13.25;;
40781;SDS011;26493;51.938;7.626;2023-04-15T09:12:53;22.40;;;13.25;;
40781;SDS011;26493;51.938;7.626;2023-04-15T09:15:19;21.05;;;13.18;;
40781;SDS011;26493;51.938;7.626;2023-04-15T09:17:45;22.33;;;12.85;;
40781;SDS011;26493;51.938;7.626;2023-04-15T09:20:13;22.42;;;13.63;;
40781;SDS011;26493;51.938;7.626;2023-04-15T09:22:39;21.80;;;13.20;;
40781;SDS011;26493;51.938;7.626;2023-04-15T09:25:27;21.52;;;13.35;;
40781;SDS011;26493;51.938;7.626;2023-04-15T09:27:53;21.25;;;13.20;;
40781;SDS011;26493;51.938;7.626;2023-04-15T09:30:20;21.83;;;12.77;;
40781;SDS011;26493;51.938;7.626;2023-04-15T09:35:21;20.70;;;13.13;;
40781;SDS011;26493;51.938;7.626;2023-04-15T09:37:48;21.95;;;13.20;;
40781;SDS011;26493;51.938;7.626;2023-04-15T09:40:14;20.77;;;12.88;;
40781;SDS011;26493;51.938;7.626;2023-04-15T09:42:55;19.67;;;12.57;;
40781;SDS011;26493;51.938;7.626;2023-04-15T09:45:21;21.40;;;13.32;;
40781;SDS011;26493;51.938;7.626;2023-04-15T09:47:48;21.10;;;12.63;;
40781;SDS011;26493;51.938;7.626;2023-04-15T09:50:18;21.83;;;13.35;;
40781;SDS011;26493;51.938;7.626;2023-04-15T09:52:44;20.55;;;13.18;;
40781;SDS011;26493;51.938;7.626;2023-04-15T09:55:10;21.52;;;13.23;;
40781;SDS011;26493;51.938;7.626;2023-04-15T09:57:37;22.58;;;13.52;;
40781;SDS011;26493;51.938;7.626;2023-04-15T10:00:05;21.42;;;13.60;;
40781;SDS011;26493;51.938;7.626;2023-04-15T10:02:32;22.23;;;14.15;;
40781;SDS011;26493;51.938;7.626;2023-04-15T10:04:58;22.95;;;13.93;;
40781;SDS011;26493;51.938;7.626;2023-04-15T10:07:24;22.45;;;14.07;;
40781;SDS011;26493;51.938;7.626;2023-04-15T10:09:50;21.40;;;14.07;;
40781;SDS011;26493;51.938;7.626;2023-04-15T10:12:17;21.27;;;13.10;;
40781;SDS011;26493;51.938;7.626;2023-04-15T10:14:43;21.88;;;12.52;;
40781;SDS011;26493;51.938;7.626;2023-04-15T10:17:10;18.92;;;11.93;;
40781;SDS011;26493;51.938;7.626;2023-04-15T10:19:36;21.23;;;13.27;;
40781;SDS011;26493;51.938;7.626;2023-04-15T10:22:03;22.20;;;12.30;;
40781;SDS011;26493;51.938;7.626;2023-04-15T10:24:30;22.65;;;13.55;;
40781;SDS011;26493;51.938;7.626;2023-04-15T10:26:56;22.27;;;12.68;;
40781;SDS011;26493;51.938;7.626;2023-04-15T10:29:23;21.30;;;11.93;;
40781;SDS011;26493;51.938;7.626;2023-04-15T10:31:51;23.90;;;11.68;;
40781;SDS011;26493;51.938;7.626;2023-04-15T10:34:18;20.10;;;12.85;;
40781;SDS011;26493;51.938;7.626;2023-04-15T10:36:44;20.17;;;12.50;;
40781;SDS011;26493;51.938;7.626;2023-04-15T10:44:32;19.35;;;11.77;;
40781;SDS011;26493;51.938;7.626;2023-04-15T10:46:58;20.38;;;12.02;;
40781;SDS011;26493;51.938;7.626;2023-04-15T10:49:24;19.30;;;12.85;;
40781;SDS011;26493;51.938;7.626;2023-04-15T10:51:51;21.08;;;12.40;;
40781;SDS011;26493;51.938;7.626;2023-04-15T10:56:50;18.52;;;11.52;;
40781;SDS011;26493;51.938;7.626;2023-04-15T10:59:16;18.92;;;11.10;;
40781;SDS011;26493;51.938;7.626;2023-04-15T11:07:05;19.27;;;11.50;;
40781;SDS011;26493;51.938;7.626;2023-04-15T11:09:31;19.45;;;11.65;;
40781;SDS011;26493;51.938;7.626;2023-04-15T11:14:33;19.77;;;10.73;;
40781;SDS011;26493;51.938;7.626;2023-04-15T11:17:00;17.73;;;10.77;;
40781;SDS011;26493;51.938;7.626;2023-04-15T11:19:26;18.88;;;10.65;;
40781;SDS011;26493;51.938;7.626;2023-04-15T11:21:52;20.38;;;10.65;;
40781;SDS011;26493;51.938;7.626;2023-04-15T11:24:24;18.02;;;10.68;;
40781;SDS011;26493;51.938;7.626;2023-04-15T11:26:56;18.02;;;10.82;;
40781;SDS011;26493;51.938;7.626;2023-04-15T11:29:27;17.73;;;10.82;;
40781;SDS011;26493;51.938;7.626;2023-04-15T11:32:00;20.02;;;11.70;;
40781;SDS011;26493;51.938;7.626;2023-04-15T11:34:27;16.90;;;10.25;;
40781;SDS011;26493;51.938;7.626;2023-04-15T11:36:55;16.80;;;10.07;;
40781;SDS011;26493;51.938;7.626;2023-04-15T11:39:21;17.80;;;10.60;;
40781;SDS011;26493;51.938;7.626;2023-04-15T11:41:47;17.15;;;9.93;;
40781;SDS011;26493;51.938;7.626;2023-04-15T11:44:17;17.58;;;10.75;;
40781;SDS011;26493;51.938;7.626;2023-04-15T11:46:43;16.83;;;9.85;;
40781;SDS011;26493;51.938;7.626;2023-04-15T11:49:09;18.00;;;10.15;;
40781;SDS011;26493;51.938;7.626;2023-04-15T11:51:35;18.40;;;9.95;;
40781;SDS011;26493;51.938;7.626;2023-04-15T11:54:01;16.35;;;9.00;;
40781;SDS011;26493;51.938;7.626;2023-04-15T11:56:27;16.67;;;9.10;;
40781;SDS011;26493;51.938;7.626;2023-04-15T11:58:54;16.60;;;8.60;;
40781;SDS011;26493;51.938;7.626;2023-04-15T12:01:33;16.70;;;9.02;;
40781;SDS011;26493;51.938;7.626;2023-04-15T12:04:00;17.38;;;10.57;;
40781;SDS011;26493;51.938;7.626;2023-04-15T12:06:31;15.60;;;9.10;;
40781;SDS011;26493;51.938;7.626;2023-04-15T12:09:14;16.50;;;8.88;;
40781;SDS011;26493;51.938;7.626;2023-04-15T12:16:50;16.35;;;8.90;;
40781;SDS011;26493;51.938;7.626;2023-04-15T12:19:22;17.88;;;9.13;;
40781;SDS011;26493;51.938;7.626;2023-04-15T12:21:49;22.00;;;13.20;;
40781;SDS011;26493;51.938;7.626;2023-04-15T12:24:18;16.52;;;9.13;;
40781;SDS011;26493;51.938;7.626;2023-04-15T12:29:12;21.05;;;11.63;;
40781;SDS011;26493;51.938;7.626;2023-04-15T12:34:14;27.88;;;17.20;;
40781;SDS011;26493;51.938;7.626;2023-04-15T12:36:40;17.80;;;9.98;;
40781;SDS011;26493;51.938;7.626;2023-04-15T12:39:07;19.20;;;11.02;;
40781;SDS011;26493;51.938;7.626;2023-04-15T12:41:33;22.05;;;13.38;;
40781;SDS011;26493;51.938;7.626;2023-04-15T12:43:59;17.92;;;10.52;;
40781;SDS011;26493;51.938;7.626;2023-04-15T12:46:26;17.00;;;10.40;;
40781;SDS011;26493;51.938;7.626;2023-04-15T12:48:52;16.52;;;9.50;;
40781;SDS011;26493;51.938;7.626;2023-04-15T12:51:18;17.15;;;8.70;;
40781;SDS011;26493;51.938;7.626;2023-04-15T12:53:47;16.75;;;9.27;;
40781;SDS011;26493;51.938;7.626;2023-04-15T12:56:14;16.15;;;9.27;;
40781;SDS011;26493;51.938;7.626;2023-04-15T12:58:40;15.95;;;9.38;;
40781;SDS011;26493;51.938;7.626;2023-04-15T13:01:07;15.77;;;8.98;;
40781;SDS011;26493;51.938;7.626;2023-04-15T13:03:34;16.85;;;9.00;;
40781;SDS011;26493;51.938;7.626;2023-04-15T13:06:00;15.35;;;8.98;;
40781;SDS011;26493;51.938;7.626;2023-04-15T13:08:28;15.48;;;8.93;;
40781;SDS011;26493;51.938;7.626;2023-04-15T13:10:54;15.75;;;8.77;;
40781;SDS011;26493;51.938;7.626;2023-04-15T13:13:20;15.73;;;8.63;;
40781;SDS011;26493;51.938;7.626;2023-04-15T13:15:46;17.08;;;9.10;;
40781;SDS011;26493;51.938;7.626;2023-04-15T13:18:12;15.82;;;9.10;;
40781;SDS011;26493;51.938;7.626;2023-04-15T13:20:38;16.60;;;9.23;;
40781;SDS011;26493;51.938;7.626;2023-04-15T13:23:05;15.55;;;8.70;;
40781;SDS011;26493;51.938;7.626;2023-04-15T13:25:31;17.10;;;10.75;;
40781;SDS011;26493;51.938;7.626;2023-04-15T13:27:57;16.08;;;9.45;;
40781;SDS011;26493;51.938;7.626;2023-04-15T13:30:25;16.23;;;9.23;;
40781;SDS011;26493;51.938;7.626;2023-04-15T13:32:51;15.43;;;9.40;;
40781;SDS011;26493;51.938;7.626;2023-04-15T13:35:18;16.50;;;9.15;;
40781;SDS011;26493;51.938;7.626;2023-04-15T13:37:44;15.55;;;8.88;;
40781;SDS011;26493;51.938;7.626;2023-04-15T13:40:10;15.32;;;8.63;;
40781;SDS011;26493;51.938;7.626;2023-04-15T13:42:36;16.27;;;9.25;;
40781;SDS011;26493;51.938;7.626;2023-04-15T13:45:02;15.88;;;8.90;;
40781;SDS011;26493;51.938;7.626;2023-04-15T13:47:28;15.82;;;8.65;;
40781;SDS011;26493;51.938;7.626;2023-04-15T13:49:54;15.80;;;9.48;;
40781;SDS011;26493;51.938;7.626;2023-04-15T13:52:24;15.80;;;9.68;;
40781;SDS011;26493;51.938;7.626;2023-04-15T13:54:50;15.95;;;9.82;;
40781;SDS011;26493;51.938;7.626;2023-04-15T13:57:16;17.38;;;10.55;;
40781;SDS011;26493;51.938;7.626;2023-04-15T13:59:42;16.52;;;9.63;;
40781;SDS011;26493;51.938;7.626;2023-04-15T14:02:08;17.23;;;10.77;;
40781;SDS011;26493;51.938;7.626;2023-04-15T14:04:34;17.25;;;10.35;;
40781;SDS011;26493;51.938;7.626;2023-04-15T14:07:00;16.50;;;10.38;;
40781;SDS011;26493;51.938;7.626;2023-04-15T14:09:26;18.98;;;11.20;;
40781;SDS011;26493;51.938;7.626;2023-04-15T14:11:52;18.48;;;11.65;;
40781;SDS011;26493;51.938;7.626;2023-04-15T14:14:18;17.27;;;11.70;;
40781;SDS011;26493;51.938;7.626;2023-04-15T14:16:44;17.88;;;12.55;;
40781;SDS011;26493;51.938;7.626;2023-04-15T14:19:11;17.60;;;12.73;;
40781;SDS011;26493;51.938;7.626;2023-04-15T14:21:37;17.08;;;12.23;;
40781;SDS011;26493;51.938;7.626;2023-04-15T14:24:04;19.25;;;13.40;;
40781;SDS011;26493;51.938;7.626;2023-04-15T14:26:33;18.38;;;14.13;;
40781;SDS011;26493;51.938;7.626;2023-04-15T14:28:59;18.58;;;13.95;;
40781;SDS011;26493;51.938;7.626;2023-04-15T14:31:25;18.60;;;14.27;;
40781;SDS011;26493;51.938;7.626;2023-04-15T14:33:51;17.35;;;14.45;;
40781;SDS011;26493;51.938;7.626;2023-04-15T14:36:17;18.85;;;16.00;;
40781;SDS011;26493;51.938;7.626;2023-04-15T14:38:43;21.70;;;17.75;;
40781;SDS011;26493;51.938;7.626;2023-04-15T14:41:09;19.65;;;17.65;;
40781;SDS011;26493;51.938;7.626;2023-04-15T14:43:36;21.45;;;19.08;;
40781;SDS011;26493;51.938;7.626;2023-04-15T14:46:02;22.70;;;20.55;;
40781;SDS011;26493;51.938;7.626;2023-04-15T14:48:28;28.75;;;26.35;;
40781;SDS011;26493;51.938;7.626;2023-04-15T14:50:55;30.05;;;27.58;;
40781;SDS011;26493;51.938;7.626;2023-04-15T14:53:21;32.05;;;29.45;;